Time;durP1;ratioP1;P1;durP2;ratioP2;P2;SDS_P1;SDS_P2;PMS_P1;PMS_P2;Temp;Humidity;BMP_temperature;BMP_pressure;BME280_temperature;BME280_humidity;BME280_pressure;Samples;Min_cycle;Max_cycle;Signal;HPM_P1;HPM_P2
2023/07/31 00:01:28;;;;;;;10.55;3.72;;;;;;;;;;5044965;28;20047;-78
2023/07/31 00:03:54;;;;;;;8.35;3.20;;;;;;;;;;5056880;28;20080;-79
2023/07/31 00:06:20;;;;;;;5.60;2.88;;;;;;;;;;5056317;28;20076;-79
2023/07/31 00:08:46;;;;;;;7.07;3.63;;;;;;;;;;5056580;28;20045;-79
2023/07/31 00:11:12;;;;;;;9.25;3.40;;;;;;;;;;5056197;28;20052;-79
2023/07/31 00:13:38;;;;;;;12.25;3.75;;;;;;;;;;5056447;28;20045;-79
2023/07/31 00:16:04;;;;;;;6.30;3.22;;;;;;;;;;5050946;28;20121;-79
2023/07/31 00:18:30;;;;;;;7.50;3.25;;;;;;;;;;5056535;28;20036;-79
2023/07/31 00:20:56;;;;;;;10.98;4.22;;;;;;;;;;5058433;28;20534;-79
2023/07/31 00:23:23;;;;;;;7.40;3.38;;;;;;;;;;5061398;28;20072;-79
2023/07/31 00:25:49;;;;;;;7.70;3.47;;;;;;;;;;5061646;28;20047;-79
2023/07/31 00:28:15;;;;;;;7.28;3.00;;;;;;;;;;5058307;28;20044;-79
2023/07/31 00:30:41;;;;;;;6.32;3.03;;;;;;;;;;5056140;28;20057;-79
2023/07/31 00:33:07;;;;;;;9.63;4.05;;;;;;;;;;5036307;28;20056;-79
2023/07/31 00:35:33;;;;;;;8.63;3.25;;;;;;;;;;5036283;28;20084;-78
2023/07/31 00:37:59;;;;;;;9.18;3.38;;;;;;;;;;5038972;28;20049;-78
2023/07/31 00:40:25;;;;;;;5.68;2.70;;;;;;;;;;5055849;28;20057;-78
2023/07/31 00:42:51;;;;;;;8.73;3.60;;;;;;;;;;5054471;28;20045;-78
2023/07/31 00:45:17;;;;;;;7.63;2.90;;;;;;;;;;5051193;28;20053;-78
2023/07/31 00:47:43;;;;;;;5.70;2.83;;;;;;;;;;5037649;28;20047;-78
2023/07/31 00:50:10;;;;;;;6.45;3.55;;;;;;;;;;5034742;28;20049;-78
2023/07/31 00:52:37;;;;;;;7.00;3.13;;;;;;;;;;5034363;28;20050;-78
2023/07/31 00:55:03;;;;;;;8.85;3.58;;;;;;;;;;5035082;28;20050;-78
2023/07/31 00:57:29;;;;;;;9.88;3.20;;;;;;;;;;5036334;28;20041;-78
2023/07/31 00:59:55;;;;;;;7.10;3.03;;;;;;;;;;5035024;28;20050;-78
2023/07/31 01:02:21;;;;;;;8.32;3.13;;;;;;;;;;5036543;28;20120;-77
2023/07/31 01:04:47;;;;;;;7.57;3.60;;;;;;;;;;5048466;28;20067;-78
2023/07/31 01:07:22;;;;;;;7.75;2.97;;;;;;;;;;5054254;28;20099;-78
2023/07/31 01:09:55;;;;;;;7.27;3.17;;;;;;;;;;5053980;28;20052;-78
2023/07/31 01:12:21;;;;;;;10.43;3.60;;;;;;;;;;5054145;28;20049;-78
2023/07/31 01:15:09;;;;;;;6.40;2.92;;;;;;;;;;5042328;28;20133;-78
2023/07/31 01:17:35;;;;;;;9.43;2.80;;;;;;;;;;5033913;28;20038;-78
2023/07/31 01:20:03;;;;;;;7.05;3.25;;;;;;;;;;5035404;28;20077;-78
2023/07/31 01:22:41;;;;;;;11.50;3.60;;;;;;;;;;5034027;28;20502;-78
2023/07/31 01:25:17;;;;;;;6.30;2.97;;;;;;;;;;5035397;28;20403;-78
2023/07/31 01:28:03;;;;;;;10.05;3.15;;;;;;;;;;5033873;28;20051;-78
2023/07/31 01:30:29;;;;;;;;;;;;;;;;;;5034400;28;20048;-78
2023/07/31 01:32:56;;;;;;;6.35;3.10;;;;;;;;;;5038832;28;20295;-78
2023/07/31 01:35:22;;;;;;;9.65;3.10;;;;;;;;;;5039514;28;20057;-78
2023/07/31 01:37:48;;;;;;;7.60;2.90;;;;;;;;;;5032246;28;20064;-78
2023/07/31 01:40:14;;;;;;;8.15;2.83;;;;;;;;;;5032538;28;20061;-78
2023/07/31 01:42:41;;;;;;;6.18;2.72;;;;;;;;;;5033381;28;20037;-78
2023/07/31 01:45:07;;;;;;;7.45;3.20;;;;;;;;;;5032147;28;20045;-78
2023/07/31 01:47:33;;;;;;;6.65;2.90;;;;;;;;;;5032378;28;20171;-78
2023/07/31 01:49:59;;;;;;;8.70;3.08;;;;;;;;;;5032856;28;20179;-78
2023/07/31 01:52:25;;;;;;;9.27;3.03;;;;;;;;;;5033866;28;20052;-78
2023/07/31 01:54:51;;;;;;;5.22;3.10;;;;;;;;;;5032230;28;20096;-78
2023/07/31 01:57:17;;;;;;;9.48;3.00;;;;;;;;;;5032949;28;20453;-78
2023/07/31 01:59:43;;;;;;;7.63;3.05;;;;;;;;;;5032215;28;20083;-78
2023/07/31 02:02:09;;;;;;;7.95;2.95;;;;;;;;;;5032074;28;20488;-78
2023/07/31 02:04:35;;;;;;;5.63;3.15;;;;;;;;;;5033521;28;20114;-78
2023/07/31 02:07:01;;;;;;;6.82;2.97;;;;;;;;;;5034185;28;20115;-78
2023/07/31 02:09:28;;;;;;;7.68;3.50;;;;;;;;;;5032980;28;20584;-78
2023/07/31 02:11:54;;;;;;;8.07;3.28;;;;;;;;;;5049732;28;20467;-78
2023/07/31 02:14:20;;;;;;;8.70;3.30;;;;;;;;;;5053099;28;20045;-78
2023/07/31 02:16:46;;;;;;;8.70;3.30;;;;;;;;;;5039550;28;20063;-78
2023/07/31 02:19:12;;;;;;;9.48;3.50;;;;;;;;;;5033302;28;20041;-78
2023/07/31 02:21:38;;;;;;;10.00;2.85;;;;;;;;;;5032444;28;20049;-79
2023/07/31 02:24:04;;;;;;;4.38;2.67;;;;;;;;;;5039425;28;20060;-78
2023/07/31 02:26:30;;;;;;;4.55;3.00;;;;;;;;;;5037377;28;20045;-78
2023/07/31 02:28:56;;;;;;;7.90;2.70;;;;;;;;;;5043934;28;20079;-78
2023/07/31 02:31:22;;;;;;;8.45;3.05;;;;;;;;;;5052818;28;20037;-78
2023/07/31 02:33:48;;;;;;;10.20;3.00;;;;;;;;;;5051558;28;20056;-78
2023/07/31 02:36:15;;;;;;;5.43;2.67;;;;;;;;;;5053018;28;20048;-78
2023/07/31 02:38:41;;;;;;;10.50;3.30;;;;;;;;;;5052872;28;20079;-78
2023/07/31 02:41:07;;;;;;;4.80;2.88;;;;;;;;;;5050838;28;20053;-79
2023/07/31 02:43:33;;;;;;;5.55;2.65;;;;;;;;;;5052932;28;20059;-78
2023/07/31 02:46:00;;;;;;;6.03;2.90;;;;;;;;;;5055210;28;20091;-79
2023/07/31 02:48:26;;;;;;;6.53;3.10;;;;;;;;;;5053249;28;20475;-78
2023/07/31 02:50:52;;;;;;;7.22;2.90;;;;;;;;;;5051377;28;20052;-78
2023/07/31 02:53:18;;;;;;;6.75;3.08;;;;;;;;;;5047260;28;20068;-78
2023/07/31 02:55:44;;;;;;;6.05;2.88;;;;;;;;;;5031686;28;20056;-79
2023/07/31 02:58:10;;;;;;;7.28;3.40;;;;;;;;;;5033115;28;20144;-78
2023/07/31 03:00:36;;;;;;;9.70;3.42;;;;;;;;;;5031768;28;20429;-78
2023/07/31 03:03:02;;;;;;;8.15;3.13;;;;;;;;;;5031575;28;20444;-78
2023/07/31 03:05:28;;;;;;;4.70;2.63;;;;;;;;;;5031598;28;20045;-78
2023/07/31 03:07:54;;;;;;;8.52;3.03;;;;;;;;;;5039720;28;20142;-79
2023/07/31 03:10:20;;;;;;;6.78;2.78;;;;;;;;;;5038435;28;20144;-79
2023/07/31 03:12:49;;;;;;;7.50;3.20;;;;;;;;;;5036291;28;20075;-79
2023/07/31 03:15:16;;;;;;;6.68;3.42;;;;;;;;;;5036315;28;20041;-78
2023/07/31 03:17:43;;;;;;;7.88;3.30;;;;;;;;;;5045356;28;20044;-78
2023/07/31 03:20:09;;;;;;;5.20;3.00;;;;;;;;;;5055105;28;20056;-78
2023/07/31 03:22:35;;;;;;;5.22;3.05;;;;;;;;;;5055755;28;20423;-78
2023/07/31 03:25:02;;;;;;;5.97;2.63;;;;;;;;;;5055856;28;20041;-78
2023/07/31 03:27:28;;;;;;;6.10;2.75;;;;;;;;;;5055737;28;20549;-78
2023/07/31 03:29:54;;;;;;;6.65;3.03;;;;;;;;;;5054638;28;20514;-78
2023/07/31 03:32:20;;;;;;;6.47;3.03;;;;;;;;;;5054722;28;20079;-78
2023/07/31 03:34:46;;;;;;;8.73;3.25;;;;;;;;;;5054726;28;20049;-78
2023/07/31 03:37:12;;;;;;;5.93;3.20;;;;;;;;;;5058943;28;20044;-79
2023/07/31 03:39:38;;;;;;;6.80;3.03;;;;;;;;;;5054936;28;20100;-78
2023/07/31 03:42:04;;;;;;;4.75;2.55;;;;;;;;;;5055910;28;20046;-78
2023/07/31 03:44:30;;;;;;;4.03;2.63;;;;;;;;;;5053282;28;20150;-78
2023/07/31 03:46:57;;;;;;;6.03;2.72;;;;;;;;;;5053637;28;20109;-78
2023/07/31 03:49:23;;;;;;;7.80;3.03;;;;;;;;;;5057158;28;20049;-79
2023/07/31 03:51:49;;;;;;;3.88;2.78;;;;;;;;;;5058765;28;20123;-79
2023/07/31 03:54:15;;;;;;;6.50;3.22;;;;;;;;;;5049675;28;20046;-79
2023/07/31 03:56:41;;;;;;;4.10;2.70;;;;;;;;;;5036486;28;20109;-79
2023/07/31 03:59:07;;;;;;;5.30;2.63;;;;;;;;;;5037313;28;20180;-79
2023/07/31 04:01:33;;;;;;;3.72;2.35;;;;;;;;;;5038325;28;20056;-79
2023/07/31 04:04:00;;;;;;;3.33;2.30;;;;;;;;;;5055972;28;20118;-79
2023/07/31 04:06:26;;;;;;;3.80;2.30;;;;;;;;;;5061236;28;20088;-79
2023/07/31 04:08:52;;;;;;;3.58;2.53;;;;;;;;;;5053656;28;20396;-78
2023/07/31 04:11:18;;;;;;;3.42;2.60;;;;;;;;;;5041809;28;20402;-77
2023/07/31 04:13:44;;;;;;;3.25;2.28;;;;;;;;;;5037410;28;20495;-77
2023/07/31 04:16:10;;;;;;;3.20;2.10;;;;;;;;;;5034473;28;20049;-78
2023/07/31 04:18:36;;;;;;;2.80;2.25;;;;;;;;;;5052964;28;20061;-78
2023/07/31 04:21:02;;;;;;;2.92;2.00;;;;;;;;;;5056675;28;20174;-78
2023/07/31 04:23:29;;;;;;;3.78;2.10;;;;;;;;;;5057470;28;20499;-78
2023/07/31 04:25:55;;;;;;;3.95;2.10;;;;;;;;;;5056357;28;20049;-79
2023/07/31 04:28:21;;;;;;;2.40;1.70;;;;;;;;;;5055611;28;20049;-78
2023/07/31 04:30:47;;;;;;;4.30;2.00;;;;;;;;;;5054401;28;20521;-77
2023/07/31 04:33:13;;;;;;;2.15;1.95;;;;;;;;;;5054071;28;20048;-77
2023/07/31 04:35:39;;;;;;;2.20;1.80;;;;;;;;;;5055072;28;20051;-77
2023/07/31 04:38:05;;;;;;;2.72;1.80;;;;;;;;;;5053823;28;20049;-77
2023/07/31 04:40:31;;;;;;;2.20;2.00;;;;;;;;;;5035362;28;20053;-77
2023/07/31 04:42:57;;;;;;;4.40;1.90;;;;;;;;;;5036085;28;20400;-79
2023/07/31 04:45:23;;;;;;;2.63;1.80;;;;;;;;;;5039591;28;20049;-79
2023/07/31 04:47:49;;;;;;;2.30;1.70;;;;;;;;;;5036349;28;20120;-78
2023/07/31 04:50:15;;;;;;;2.20;1.70;;;;;;;;;;5036103;28;20546;-78
2023/07/31 04:52:41;;;;;;;2.63;1.90;;;;;;;;;;5034834;28;20042;-78
2023/07/31 04:55:08;;;;;;;2.40;1.92;;;;;;;;;;5054144;28;20045;-78
2023/07/31 04:57:34;;;;;;;2.65;1.90;;;;;;;;;;5054316;28;20052;-78
2023/07/31 05:00:00;;;;;;;3.85;2.33;;;;;;;;;;5054815;28;20041;-78
2023/07/31 05:02:26;;;;;;;4.88;2.45;;;;;;;;;;5052378;28;20515;-77
2023/07/31 05:04:52;;;;;;;7.45;2.65;;;;;;;;;;5054158;28;20498;-77
2023/07/31 05:07:18;;;;;;;5.75;2.60;;;;;;;;;;5054030;28;20221;-78
2023/07/31 05:09:44;;;;;;;7.53;3.60;;;;;;;;;;5037730;28;20080;-79
2023/07/31 05:12:10;;;;;;;8.93;3.60;;;;;;;;;;5036952;28;20041;-79
2023/07/31 05:14:36;;;;;;;7.45;3.80;;;;;;;;;;5054431;28;20124;-78
2023/07/31 05:17:03;;;;;;;8.80;4.05;;;;;;;;;;5044929;28;20383;-79
2023/07/31 05:19:29;;;;;;;12.23;4.70;;;;;;;;;;5037107;28;20071;-79
2023/07/31 05:21:55;;;;;;;9.43;4.88;;;;;;;;;;5034696;28;20045;-79
2023/07/31 05:24:21;;;;;;;11.13;4.75;;;;;;;;;;5051938;28;20071;-79
2023/07/31 05:26:47;;;;;;;7.25;4.47;;;;;;;;;;5053112;28;20443;-79
2023/07/31 05:29:13;;;;;;;8.82;4.43;;;;;;;;;;5053171;28;20381;-79
2023/07/31 05:31:39;;;;;;;8.95;4.47;;;;;;;;;;5053788;28;20048;-81
2023/07/31 05:34:05;;;;;;;9.55;4.68;;;;;;;;;;5054622;28;20128;-77
2023/07/31 05:36:31;;;;;;;12.75;5.28;;;;;;;;;;5050567;28;20076;-78
2023/07/31 05:38:57;;;;;;;8.68;4.22;;;;;;;;;;5033827;28;20420;-79
2023/07/31 05:41:23;;;;;;;5.53;4.10;;;;;;;;;;5037220;28;20524;-79
2023/07/31 05:43:51;;;;;;;5.85;3.60;;;;;;;;;;5055325;28;20077;-79
2023/07/31 05:46:17;;;;;;;6.43;3.65;;;;;;;;;;5046276;28;20492;-79
2023/07/31 05:48:43;;;;;;;7.18;3.70;;;;;;;;;;5044380;28;20487;-81
2023/07/31 05:51:09;;;;;;;7.10;3.35;;;;;;;;;;5054496;28;20053;-78
2023/07/31 05:53:38;;;;;;;6.38;2.97;;;;;;;;;;5053526;28;20053;-77
2023/07/31 05:56:04;;;;;;;4.15;2.30;;;;;;;;;;5049469;28;20048;-78
2023/07/31 05:58:30;;;;;;;4.25;2.22;;;;;;;;;;5054231;28;20124;-78
2023/07/31 06:00:56;;;;;;;3.80;2.05;;;;;;;;;;5044719;28;20045;-78
2023/07/31 06:03:22;;;;;;;4.28;2.53;;;;;;;;;;5041178;28;20045;-79
2023/07/31 06:05:48;;;;;;;4.40;2.38;;;;;;;;;;5046391;28;20124;-79
2023/07/31 06:08:14;;;;;;;5.00;2.80;;;;;;;;;;5045822;28;20133;-79
2023/07/31 06:10:40;;;;;;;6.05;3.13;;;;;;;;;;5054247;28;20060;-79
2023/07/31 06:13:06;;;;;;;7.75;3.20;;;;;;;;;;5053958;28;20053;-79
2023/07/31 06:15:32;;;;;;;13.63;4.28;;;;;;;;;;5057628;28;20045;-79
2023/07/31 06:18:01;;;;;;;14.50;4.68;;;;;;;;;;5055913;28;20128;-79
2023/07/31 06:20:27;;;;;;;11.82;4.30;;;;;;;;;;5055245;28;20491;-80
2023/07/31 06:22:53;;;;;;;13.38;5.43;;;;;;;;;;5040030;28;20075;-79
2023/07/31 06:25:19;;;;;;;12.93;4.88;;;;;;;;;;5037131;28;20052;-79
2023/07/31 06:27:46;;;;;;;11.40;4.80;;;;;;;;;;5035958;28;20049;-79
2023/07/31 06:30:12;;;;;;;12.30;5.45;;;;;;;;;;5037384;28;20044;-79
2023/07/31 06:32:40;;;;;;;13.68;5.38;;;;;;;;;;5044174;28;20045;-80
2023/07/31 06:35:06;;;;;;;13.43;5.78;;;;;;;;;;5055488;28;20060;-79
2023/07/31 06:37:32;;;;;;;11.88;4.95;;;;;;;;;;5038848;28;20057;-78
2023/07/31 06:39:59;;;;;;;11.25;5.00;;;;;;;;;;5033436;28;20060;-78
2023/07/31 06:42:25;;;;;;;10.98;4.95;;;;;;;;;;5046734;28;20053;-78
2023/07/31 06:44:51;;;;;;;7.68;3.80;;;;;;;;;;5054579;28;20140;-78
2023/07/31 06:47:17;;;;;;;9.02;3.38;;;;;;;;;;5038903;28;20440;-78
2023/07/31 06:49:43;;;;;;;8.45;4.00;;;;;;;;;;5037551;28;20459;-78
2023/07/31 06:52:11;;;;;;;8.07;3.35;;;;;;;;;;5035874;28;20132;-78
2023/07/31 06:54:37;;;;;;;7.50;3.08;;;;;;;;;;5035663;28;20060;-78
2023/07/31 06:57:03;;;;;;;5.50;3.00;;;;;;;;;;5049523;28;20052;-78
2023/07/31 06:59:29;;;;;;;6.90;3.08;;;;;;;;;;5040403;28;20048;-78
2023/07/31 07:01:55;;;;;;;6.57;2.95;;;;;;;;;;5037952;28;20506;-79
2023/07/31 07:04:21;;;;;;;6.72;2.90;;;;;;;;;;5038436;28;20104;-78
2023/07/31 07:06:47;;;;;;;3.75;2.50;;;;;;;;;;5043569;28;20052;-78
2023/07/31 07:09:13;;;;;;;2.85;2.30;;;;;;;;;;5049889;28;20045;-78
2023/07/31 07:11:40;;;;;;;3.22;1.98;;;;;;;;;;5044088;28;20068;-79
2023/07/31 07:14:06;;;;;;;5.97;2.45;;;;;;;;;;5042268;28;20532;-78
2023/07/31 07:16:32;;;;;;;2.97;1.60;;;;;;;;;;5036878;28;20049;-78
2023/07/31 07:18:58;;;;;;;3.20;1.70;;;;;;;;;;5036266;28;20163;-78
2023/07/31 07:21:24;;;;;;;2.92;1.73;;;;;;;;;;5056690;28;20159;-81
2023/07/31 07:23:50;;;;;;;2.25;1.60;;;;;;;;;;5053119;28;20053;-77
2023/07/31 07:26:16;;;;;;;2.83;1.90;;;;;;;;;;5055413;28;20045;-78
2023/07/31 07:28:42;;;;;;;5.35;2.75;;;;;;;;;;5058990;28;20051;-81
2023/07/31 07:31:08;;;;;;;4.75;2.22;;;;;;;;;;5055297;28;20049;-81
2023/07/31 07:33:34;;;;;;;4.55;2.95;;;;;;;;;;5050921;28;20045;-80
2023/07/31 07:36:01;;;;;;;4.13;2.92;;;;;;;;;;5039321;28;20084;-80
2023/07/31 07:38:27;;;;;;;4.72;2.63;;;;;;;;;;5034223;28;20053;-78
2023/07/31 07:40:54;;;;;;;6.97;2.85;;;;;;;;;;5034785;28;20061;-78
2023/07/31 07:43:20;;;;;;;5.47;2.83;;;;;;;;;;5049756;28;20092;-78
2023/07/31 07:45:46;;;;;;;6.88;3.45;;;;;;;;;;5053099;28;20094;-78
2023/07/31 07:48:12;;;;;;;5.28;2.63;;;;;;;;;;5052879;28;20076;-78
2023/07/31 07:50:39;;;;;;;7.80;3.22;;;;;;;;;;5040477;28;20084;-78
2023/07/31 07:53:05;;;;;;;7.00;2.75;;;;;;;;;;5057774;28;20045;-79
2023/07/31 07:55:31;;;;;;;5.13;2.70;;;;;;;;;;5056195;28;20470;-78
2023/07/31 07:57:57;;;;;;;3.67;2.20;;;;;;;;;;5054491;28;20138;-78
2023/07/31 08:00:24;;;;;;;4.72;2.50;;;;;;;;;;5047774;28;20045;-78
2023/07/31 08:02:50;;;;;;;3.53;2.30;;;;;;;;;;5035189;28;20140;-77
2023/07/31 08:05:17;;;;;;;3.70;1.90;;;;;;;;;;5034467;28;20052;-78
2023/07/31 08:07:43;;;;;;;3.17;1.90;;;;;;;;;;5045928;28;20056;-77
2023/07/31 08:10:10;;;;;;;3.40;2.05;;;;;;;;;;5044528;28;20556;-77
2023/07/31 08:12:36;;;;;;;2.15;1.60;;;;;;;;;;5041778;28;20499;-78
2023/07/31 08:15:02;;;;;;;4.43;1.60;;;;;;;;;;5053517;28;20474;-77
2023/07/31 08:17:28;;;;;;;2.42;1.50;;;;;;;;;;5053252;28;20048;-77
2023/07/31 08:19:54;;;;;;;3.08;1.85;;;;;;;;;;5050804;28;20128;-77
2023/07/31 08:22:20;;;;;;;3.30;1.63;;;;;;;;;;5050289;28;20128;-78
2023/07/31 08:24:46;;;;;;;2.60;1.13;;;;;;;;;;5050961;28;20048;-78
2023/07/31 08:27:12;;;;;;;2.13;1.50;;;;;;;;;;5034153;28;20051;-78
2023/07/31 08:29:38;;;;;;;3.78;1.60;;;;;;;;;;5052051;28;20045;-78
2023/07/31 08:32:04;;;;;;;2.88;1.65;;;;;;;;;;5054956;28;20110;-78
2023/07/31 08:34:31;;;;;;;2.47;1.55;;;;;;;;;;5055581;28;20124;-78
2023/07/31 08:36:58;;;;;;;3.17;1.67;;;;;;;;;;5056303;28;20041;-79
2023/07/31 08:39:25;;;;;;;3.92;1.67;;;;;;;;;;5057248;28;20045;-79
2023/07/31 08:41:51;;;;;;;5.53;2.00;;;;;;;;;;5042238;28;20049;-79
2023/07/31 08:44:18;;;;;;;4.18;1.83;;;;;;;;;;5042503;28;20072;-79
2023/07/31 08:46:46;;;;;;;5.40;2.10;;;;;;;;;;5056940;28;20055;-79
2023/07/31 08:49:12;;;;;;;3.83;1.90;;;;;;;;;;5042780;28;20091;-78
2023/07/31 08:51:39;;;;;;;3.80;1.45;;;;;;;;;;5047934;28;20041;-80
2023/07/31 08:54:05;;;;;;;3.45;1.63;;;;;;;;;;5053007;28;20491;-78
2023/07/31 08:56:32;;;;;;;3.38;1.60;;;;;;;;;;5054845;28;20052;-77
2023/07/31 08:59:00;;;;;;;3.38;1.50;;;;;;;;;;5054006;28;20162;-77
2023/07/31 09:01:29;;;;;;;2.33;1.80;;;;;;;;;;5053425;28;20041;-78
2023/07/31 09:03:55;;;;;;;3.58;1.88;;;;;;;;;;5056374;28;20489;-79
2023/07/31 09:06:22;;;;;;;3.30;1.98;;;;;;;;;;5054074;28;20041;-78
2023/07/31 09:08:48;;;;;;;4.15;1.80;;;;;;;;;;5056463;28;20123;-78
2023/07/31 09:11:15;;;;;;;4.82;2.10;;;;;;;;;;5055877;28;20045;-82
2023/07/31 09:13:41;;;;;;;4.45;2.00;;;;;;;;;;5055393;28;20061;-77
2023/07/31 09:16:10;;;;;;;5.00;2.33;;;;;;;;;;5056511;28;20124;-79
2023/07/31 09:18:56;;;;;;;5.95;2.35;;;;;;;;;;5059386;28;20075;-80
2023/07/31 09:21:22;;;;;;;7.75;2.90;;;;;;;;;;5048689;28;20053;-80
2023/07/31 09:23:48;;;;;;;6.78;2.90;;;;;;;;;;5058836;28;20051;-80
2023/07/31 09:26:29;;;;;;;5.75;2.55;;;;;;;;;;5050204;28;20037;-79
2023/07/31 09:28:55;;;;;;;9.15;3.45;;;;;;;;;;5053318;28;20435;-80
2023/07/31 09:31:34;;;;;;;6.85;2.92;;;;;;;;;;5038529;28;20564;-80
2023/07/31 09:34:00;;;;;;;5.88;2.92;;;;;;;;;;5038711;28;20064;-79
2023/07/31 09:36:30;;;;;;;6.57;2.97;;;;;;;;;;5039095;28;20099;-79
2023/07/31 09:38:56;;;;;;;4.38;2.80;;;;;;;;;;5038880;28;20076;-79
2023/07/31 09:41:22;;;;;;;6.03;2.58;;;;;;;;;;5038871;28;20060;-78
2023/07/31 09:43:54;;;;;;;5.47;2.60;;;;;;;;;;5044104;28;20546;-79
2023/07/31 09:46:21;;;;;;;5.90;2.63;;;;;;;;;;5058829;28;20048;-78
2023/07/31 09:48:47;;;;;;;6.60;2.97;;;;;;;;;;5058483;28;20450;-79
2023/07/31 09:51:14;;;;;;;5.97;2.97;;;;;;;;;;5058102;28;20449;-80
2023/07/31 09:53:40;;;;;;;4.68;2.95;;;;;;;;;;5057957;28;20606;-81
2023/07/31 09:56:06;;;;;;;4.30;2.35;;;;;;;;;;5057353;28;20072;-79
2023/07/31 09:58:35;;;;;;;3.42;2.20;;;;;;;;;;5053446;28;20162;-77
2023/07/31 10:01:02;;;;;;;3.00;2.10;;;;;;;;;;5054890;28;20150;-82
2023/07/31 10:03:30;;;;;;;3.47;1.80;;;;;;;;;;5054219;28;20041;-78
2023/07/31 10:05:56;;;;;;;3.42;1.85;;;;;;;;;;5054079;28;20045;-78
2023/07/31 10:08:24;;;;;;;3.13;1.77;;;;;;;;;;5053957;28;20095;-78
2023/07/31 10:10:50;;;;;;;4.15;2.22;;;;;;;;;;5055553;28;20155;-82
2023/07/31 10:13:17;;;;;;;2.67;1.80;;;;;;;;;;5050574;28;20479;-80
2023/07/31 10:15:43;;;;;;;3.92;1.90;;;;;;;;;;5057921;28;20511;-80
2023/07/31 10:18:09;;;;;;;2.50;1.60;;;;;;;;;;5057485;28;20495;-80
2023/07/31 10:20:36;;;;;;;3.35;1.92;;;;;;;;;;5053556;28;20045;-80
2023/07/31 10:23:02;;;;;;;2.67;2.00;;;;;;;;;;5036772;28;20492;-81
2023/07/31 10:25:30;;;;;;;2.55;1.90;;;;;;;;;;5037368;28;20053;-80
2023/07/31 10:27:57;;;;;;;3.22;2.00;;;;;;;;;;5037384;28;20095;-80
2023/07/31 10:30:26;;;;;;;3.38;1.92;;;;;;;;;;5037239;28;20200;-80
2023/07/31 10:32:53;;;;;;;5.03;2.17;;;;;;;;;;5047803;28;20041;-79
2023/07/31 10:35:22;;;;;;;2.78;1.80;;;;;;;;;;5055698;28;20053;-79
2023/07/31 10:37:48;;;;;;;4.13;1.90;;;;;;;;;;5056658;28;20064;-79
2023/07/31 10:40:25;;;;;;;3.00;1.70;;;;;;;;;;5049482;28;20569;-81
2023/07/31 10:42:55;;;;;;;3.10;1.90;;;;;;;;;;5042857;28;20064;-80
2023/07/31 10:45:26;;;;;;;1.63;1.50;;;;;;;;;;5036807;28;20081;-81
2023/07/31 10:48:00;;;;;;;2.28;1.70;;;;;;;;;;5039974;28;20044;-83
2023/07/31 10:50:26;;;;;;;5.55;1.85;;;;;;;;;;5036848;28;20050;-81
2023/07/31 10:52:53;;;;;;;3.60;1.95;;;;;;;;;;5038017;28;20052;-81
2023/07/31 10:55:33;;;;;;;2.50;1.70;;;;;;;;;;5044838;28;20060;-81
2023/07/31 10:58:19;;;;;;;2.90;2.00;;;;;;;;;;5047679;28;20045;-81
2023/07/31 11:00:45;;;;;;;3.53;2.03;;;;;;;;;;5038057;28;20069;-80
2023/07/31 11:03:16;;;;;;;2.17;1.70;;;;;;;;;;5048581;28;20060;-81
2023/07/31 11:06:00;;;;;;;2.05;1.58;;;;;;;;;;5053854;28;20507;-81
2023/07/31 11:08:30;;;;;;;4.40;1.80;;;;;;;;;;5040379;28;20033;-80
2023/07/31 11:11:02;;;;;;;2.97;1.95;;;;;;;;;;5037014;28;20042;-81
2023/07/31 11:13:28;;;;;;;2.83;1.83;;;;;;;;;;5037016;28;20053;-81
2023/07/31 11:15:55;;;;;;;5.75;2.03;;;;;;;;;;5054699;28;20053;-80
2023/07/31 11:18:21;;;;;;;2.85;1.90;;;;;;;;;;5056921;28;20130;-80
2023/07/31 11:20:47;;;;;;;3.65;1.92;;;;;;;;;;5056791;28;20040;-80
2023/07/31 11:23:13;;;;;;;4.10;2.25;;;;;;;;;;5056957;28;20045;-80
2023/07/31 11:25:41;;;;;;;7.07;3.00;;;;;;;;;;5056903;28;20041;-80
2023/07/31 11:28:11;;;;;;;5.88;2.50;;;;;;;;;;5056590;28;20044;-80
2023/07/31 11:30:39;;;;;;;5.47;2.58;;;;;;;;;;5060174;28;20041;-80
2023/07/31 11:33:06;;;;;;;5.80;2.50;;;;;;;;;;5055659;28;20064;-80
2023/07/31 11:35:36;;;;;;;6.40;2.60;;;;;;;;;;5057134;28;20041;-80
2023/07/31 11:38:03;;;;;;;5.85;2.70;;;;;;;;;;5053401;28;20061;-80
2023/07/31 11:40:29;;;;;;;4.97;2.60;;;;;;;;;;5053980;28;20048;-80
2023/07/31 11:42:59;;;;;;;5.50;2.55;;;;;;;;;;5050419;28;20038;-80
2023/07/31 11:45:27;;;;;;;5.80;2.80;;;;;;;;;;5053473;28;20045;-81
2023/07/31 11:47:54;;;;;;;6.13;2.70;;;;;;;;;;5050643;28;20041;-81
2023/07/31 11:50:20;;;;;;;7.63;2.83;;;;;;;;;;5046799;28;20057;-81
2023/07/31 11:52:48;;;;;;;6.68;2.80;;;;;;;;;;5034227;28;20042;-80
2023/07/31 11:55:15;;;;;;;4.70;2.50;;;;;;;;;;5052150;28;20114;-80
2023/07/31 11:57:42;;;;;;;3.95;2.00;;;;;;;;;;5054407;28;20402;-80
2023/07/31 12:00:10;;;;;;;3.10;2.00;;;;;;;;;;5054019;28;20389;-81
2023/07/31 12:02:39;;;;;;;3.83;2.20;;;;;;;;;;5050874;28;20041;-81
2023/07/31 12:05:05;;;;;;;4.05;2.20;;;;;;;;;;5057816;28;20041;-81
2023/07/31 12:07:48;;;;;;;5.18;2.20;;;;;;;;;;5055836;28;20415;-80
2023/07/31 12:10:26;;;;;;;3.15;2.13;;;;;;;;;;5057702;28;20045;-80
2023/07/31 12:13:02;;;;;;;3.83;1.90;;;;;;;;;;5061365;28;20052;-79
2023/07/31 12:15:31;;;;;;;4.72;2.03;;;;;;;;;;5061365;28;20052;-80
2023/07/31 12:17:58;;;;;;;2.95;2.20;;;;;;;;;;5060697;28;20051;-80
2023/07/31 12:20:24;;;;;;;2.95;1.95;;;;;;;;;;5058242;28;20044;-80
2023/07/31 12:22:50;;;;;;;3.08;2.22;;;;;;;;;;5048042;28;20111;-80
2023/07/31 12:25:17;;;;;;;3.65;2.35;;;;;;;;;;5042570;28;20064;-81
2023/07/31 12:27:46;;;;;;;4.15;2.45;;;;;;;;;;5058771;28;20476;-81
2023/07/31 12:30:32;;;;;;;6.65;2.50;;;;;;;;;;5059860;28;20051;-81
2023/07/31 12:33:03;;;;;;;5.07;2.50;;;;;;;;;;5053685;28;20052;-81
2023/07/31 12:35:35;;;;;;;6.95;2.80;;;;;;;;;;5042559;28;20046;-80
2023/07/31 12:38:02;;;;;;;6.18;3.20;;;;;;;;;;5044761;28;20057;-80
2023/07/31 12:40:28;;;;;;;7.50;2.67;;;;;;;;;;5039822;28;20389;-80
2023/07/31 12:42:57;;;;;;;4.75;2.65;;;;;;;;;;5051988;28;20041;-80
2023/07/31 12:45:23;;;;;;;4.40;2.80;;;;;;;;;;5057134;28;20059;-82
2023/07/31 12:47:50;;;;;;;5.47;2.60;;;;;;;;;;5041417;28;20187;-80
2023/07/31 12:50:16;;;;;;;5.45;2.72;;;;;;;;;;5056460;28;20045;-80
2023/07/31 12:52:42;;;;;;;5.72;2.83;;;;;;;;;;5050397;28;20050;-80
2023/07/31 12:55:10;;;;;;;8.10;3.17;;;;;;;;;;5060156;28;20049;-80
2023/07/31 12:57:36;;;;;;;7.72;2.83;;;;;;;;;;5059273;28;20075;-80
2023/07/31 13:00:03;;;;;;;5.03;3.05;;;;;;;;;;5060035;28;20049;-80
2023/07/31 13:02:29;;;;;;;5.28;3.20;;;;;;;;;;5059979;28;20044;-80
2023/07/31 13:04:56;;;;;;;7.80;3.47;;;;;;;;;;5059938;28;20483;-80
2023/07/31 13:07:22;;;;;;;5.20;2.72;;;;;;;;;;5059279;28;20037;-80
2023/07/31 13:09:49;;;;;;;5.88;3.33;;;;;;;;;;5060539;28;20041;-80
2023/07/31 13:12:15;;;;;;;6.25;3.10;;;;;;;;;;5057397;28;20049;-80
2023/07/31 13:14:41;;;;;;;8.73;3.08;;;;;;;;;;5058915;28;20066;-80
2023/07/31 13:17:07;;;;;;;7.43;3.05;;;;;;;;;;5050012;28;20056;-80
2023/07/31 13:19:33;;;;;;;8.15;3.28;;;;;;;;;;5060101;28;20041;-80
2023/07/31 13:21:59;;;;;;;9.00;4.15;;;;;;;;;;5059721;28;20399;-80
2023/07/31 13:24:25;;;;;;;6.00;2.83;;;;;;;;;;5058066;28;20071;-80
2023/07/31 13:26:51;;;;;;;6.75;3.00;;;;;;;;;;5058029;28;20049;-80
2023/07/31 13:29:17;;;;;;;7.60;3.10;;;;;;;;;;5060579;28;20107;-80
2023/07/31 13:31:43;;;;;;;8.45;2.88;;;;;;;;;;5055712;28;20124;-80
2023/07/31 13:34:09;;;;;;;7.10;3.33;;;;;;;;;;5041901;28;20044;-80
2023/07/31 13:36:36;;;;;;;6.88;3.10;;;;;;;;;;5054020;28;20045;-80
2023/07/31 13:39:03;;;;;;;9.63;3.45;;;;;;;;;;5042735;28;20400;-80
2023/07/31 13:41:29;;;;;;;6.90;3.40;;;;;;;;;;5050328;28;20059;-81
2023/07/31 13:43:55;;;;;;;11.25;3.20;;;;;;;;;;5052180;28;20101;-84
2023/07/31 13:46:21;;;;;;;10.30;3.78;;;;;;;;;;5055360;28;20044;-80
2023/07/31 13:48:47;;;;;;;7.88;3.38;;;;;;;;;;5061104;28;20045;-82
2023/07/31 13:51:13;;;;;;;7.38;3.38;;;;;;;;;;5044706;28;20128;-80
2023/07/31 13:53:39;;;;;;;7.97;3.42;;;;;;;;;;5050338;28;20044;-80
2023/07/31 13:56:05;;;;;;;11.90;3.45;;;;;;;;;;5045304;28;20560;-80
2023/07/31 13:58:33;;;;;;;7.13;3.42;;;;;;;;;;5060174;28;20147;-80
2023/07/31 14:00:59;;;;;;;5.90;3.25;;;;;;;;;;5049959;28;20052;-80
2023/07/31 14:03:25;;;;;;;7.75;3.40;;;;;;;;;;5049652;28;20041;-81
2023/07/31 14:05:53;;;;;;;6.93;3.45;;;;;;;;;;5062081;28;20045;-80
2023/07/31 14:08:19;;;;;;;6.15;3.00;;;;;;;;;;5052272;28;20091;-80
2023/07/31 14:10:45;;;;;;;8.77;3.30;;;;;;;;;;5039289;28;20073;-81
2023/07/31 14:13:11;;;;;;;7.25;3.45;;;;;;;;;;5036509;28;20048;-80
2023/07/31 14:15:37;;;;;;;6.72;3.00;;;;;;;;;;5044702;28;20052;-79
2023/07/31 14:18:03;;;;;;;7.15;3.15;;;;;;;;;;5048596;28;20037;-81
2023/07/31 14:20:30;;;;;;;5.82;3.30;;;;;;;;;;5037531;28;20046;-80
2023/07/31 14:22:59;;;;;;;5.55;3.10;;;;;;;;;;5042775;28;20057;-80
2023/07/31 14:25:25;;;;;;;6.93;3.17;;;;;;;;;;5041011;28;20053;-80
2023/07/31 14:27:51;;;;;;;8.13;3.47;;;;;;;;;;5058441;28;20064;-81
2023/07/31 14:30:18;;;;;;;6.93;3.22;;;;;;;;;;5054026;28;20120;-80
2023/07/31 14:32:44;;;;;;;9.20;3.45;;;;;;;;;;5042669;28;20057;-80
2023/07/31 14:35:10;;;;;;;9.68;3.33;;;;;;;;;;5044281;28;20078;-80
2023/07/31 14:37:40;;;;;;;11.30;3.75;;;;;;;;;;5056898;28;20389;-79
2023/07/31 14:40:07;;;;;;;9.93;4.13;;;;;;;;;;5044733;28;20052;-81
2023/07/31 14:42:33;;;;;;;9.93;4.43;;;;;;;;;;5040028;28;20400;-80